Terminal Aerodrome Forecast
Issued by NWS

Home | Current Version | Previous Version | Text Only | Print | Product List | Glossary On
Versions: 1 2 3 4 5 6 7 8 9 10 11 12
000
FTUS44 KTSA 260520
TAFMLC
TAF
KMLC 260520Z 2606/2706 15005KT P6SM SCT060 BKN250
     FM261200 VRB06KT P6SM SCT040 BKN250 PROB30 2615/2621 5SM -TSRA
      BR BKN035CB
     FM262100 15005KT P6SM FEW040 BKN200=

USA.gov is the U.S. government's official web portal to all federal, state and local government web resources and services.